sensor_id;sensor_type;location;lat;lon;timestamp;temperature;humidity
10541;DHT22;5318;50.844;4.272;2022-12-20T00:13:30;12.60;99.90
10541;DHT22;5318;50.844;4.272;2022-12-20T00:16:10;12.60;99.90
10541;DHT22;5318;50.844;4.272;2022-12-20T00:18:49;12.70;99.90
10541;DHT22;5318;50.844;4.272;2022-12-20T00:21:23;12.60;99.90
10541;DHT22;5318;50.844;4.272;2022-12-20T00:23:59;12.70;99.90
10541;DHT22;5318;50.844;4.272;2022-12-20T00:26:36;12.70;99.90
10541;DHT22;5318;50.844;4.272;2022-12-20T00:29:13;12.70;99.90
10541;DHT22;5318;50.844;4.272;2022-12-20T00:31:49;12.70;99.90
10541;DHT22;5318;50.844;4.272;2022-12-20T00:34:26;12.70;99.90
10541;DHT22;5318;50.844;4.272;2022-12-20T00:37:02;12.70;99.90
10541;DHT22;5318;50.844;4.272;2022-12-20T00:39:39;12.60;99.90
10541;DHT22;5318;50.844;4.272;2022-12-20T00:42:15;12.60;99.90
10541;DHT22;5318;50.844;4.272;2022-12-20T00:44:52;12.60;99.90
10541;DHT22;5318;50.844;4.272;2022-12-20T00:47:29;12.70;99.90
10541;DHT22;5318;50.844;4.272;2022-12-20T00:50:05;12.70;99.90
10541;DHT22;5318;50.844;4.272;2022-12-20T00:52:42;12.80;99.90
10541;DHT22;5318;50.844;4.272;2022-12-20T00:55:19;12.80;99.90
10541;DHT22;5318;50.844;4.272;2022-12-20T00:57:56;12.70;99.90
10541;DHT22;5318;50.844;4.272;2022-12-20T01:00:33;12.70;99.90
10541;DHT22;5318;50.844;4.272;2022-12-20T01:03:10;12.70;99.90
10541;DHT22;5318;50.844;4.272;2022-12-20T01:05:59;12.80;99.90
10541;DHT22;5318;50.844;4.272;2022-12-20T01:08:35;12.70;99.90
10541;DHT22;5318;50.844;4.272;2022-12-20T01:11:14;12.80;99.90
10541;DHT22;5318;50.844;4.272;2022-12-20T01:13:50;12.80;99.90
10541;DHT22;5318;50.844;4.272;2022-12-20T01:16:33;12.80;99.90
10541;DHT22;5318;50.844;4.272;2022-12-20T01:19:05;12.80;99.90
10541;DHT22;5318;50.844;4.272;2022-12-20T01:21:41;12.80;99.90
10541;DHT22;5318;50.844;4.272;2022-12-20T01:24:19;12.70;99.90
10541;DHT22;5318;50.844;4.272;2022-12-20T01:26:55;12.70;99.90
10541;DHT22;5318;50.844;4.272;2022-12-20T01:29:32;12.70;99.90
10541;DHT22;5318;50.844;4.272;2022-12-20T01:32:08;12.60;99.90
10541;DHT22;5318;50.844;4.272;2022-12-20T01:34:45;12.50;99.90
10541;DHT22;5318;50.844;4.272;2022-12-20T01:37:21;12.50;99.90
10541;DHT22;5318;50.844;4.272;2022-12-20T01:39:58;12.60;99.90
10541;DHT22;5318;50.844;4.272;2022-12-20T01:42:35;12.80;99.90
10541;DHT22;5318;50.844;4.272;2022-12-20T01:45:13;12.90;99.90
10541;DHT22;5318;50.844;4.272;2022-12-20T01:47:50;13.00;99.90
10541;DHT22;5318;50.844;4.272;2022-12-20T01:50:26;13.00;99.90
10541;DHT22;5318;50.844;4.272;2022-12-20T01:53:03;13.00;99.90
10541;DHT22;5318;50.844;4.272;2022-12-20T01:55:39;12.90;99.90
10541;DHT22;5318;50.844;4.272;2022-12-20T01:58:17;13.00;99.90
10541;DHT22;5318;50.844;4.272;2022-12-20T02:00:54;12.90;99.90
10541;DHT22;5318;50.844;4.272;2022-12-20T02:03:30;12.90;99.90
10541;DHT22;5318;50.844;4.272;2022-12-20T02:06:14;13.10;99.90
10541;DHT22;5318;50.844;4.272;2022-12-20T02:08:49;13.00;99.90
10541;DHT22;5318;50.844;4.272;2022-12-20T02:14:13;13.00;99.90
10541;DHT22;5318;50.844;4.272;2022-12-20T02:16:52;12.90;99.90
10541;DHT22;5318;50.844;4.272;2022-12-20T02:30:52;12.80;99.90
10541;DHT22;5318;50.844;4.272;2022-12-20T02:33:29;12.90;99.90
10541;DHT22;5318;50.844;4.272;2022-12-20T02:36:06;12.80;99.90
10541;DHT22;5318;50.844;4.272;2022-12-20T02:38:43;12.80;99.90
10541;DHT22;5318;50.844;4.272;2022-12-20T02:41:29;12.80;99.90
10541;DHT22;5318;50.844;4.272;2022-12-20T02:44:09;12.90;99.90
10541;DHT22;5318;50.844;4.272;2022-12-20T02:46:42;12.90;99.90
10541;DHT22;5318;50.844;4.272;2022-12-20T02:49:19;12.90;99.90
10541;DHT22;5318;50.844;4.272;2022-12-20T02:51:56;12.90;99.90
10541;DHT22;5318;50.844;4.272;2022-12-20T02:54:35;13.00;99.90
10541;DHT22;5318;50.844;4.272;2022-12-20T03:00:17;13.00;99.90
10541;DHT22;5318;50.844;4.272;2022-12-20T03:02:52;13.10;99.90
10541;DHT22;5318;50.844;4.272;2022-12-20T03:05:29;13.10;99.90
10541;DHT22;5318;50.844;4.272;2022-12-20T03:08:06;13.20;99.90
10541;DHT22;5318;50.844;4.272;2022-12-20T03:10:42;13.20;99.90
10541;DHT22;5318;50.844;4.272;2022-12-20T03:13:19;13.20;99.90
10541;DHT22;5318;50.844;4.272;2022-12-20T03:15:55;13.20;99.90
10541;DHT22;5318;50.844;4.272;2022-12-20T03:18:33;13.00;99.90
10541;DHT22;5318;50.844;4.272;2022-12-20T03:21:09;13.00;99.90
10541;DHT22;5318;50.844;4.272;2022-12-20T03:23:46;12.90;99.90
10541;DHT22;5318;50.844;4.272;2022-12-20T03:26:22;12.90;99.90
10541;DHT22;5318;50.844;4.272;2022-12-20T03:29:00;13.00;99.90
10541;DHT22;5318;50.844;4.272;2022-12-20T03:31:37;13.00;99.90
10541;DHT22;5318;50.844;4.272;2022-12-20T03:34:14;12.90;99.90
10541;DHT22;5318;50.844;4.272;2022-12-20T03:36:50;13.00;99.90
10541;DHT22;5318;50.844;4.272;2022-12-20T03:39:27;13.10;99.90
10541;DHT22;5318;50.844;4.272;2022-12-20T03:42:03;13.10;99.90
10541;DHT22;5318;50.844;4.272;2022-12-20T03:44:40;13.10;99.90
10541;DHT22;5318;50.844;4.272;2022-12-20T03:47:17;13.10;99.90
10541;DHT22;5318;50.844;4.272;2022-12-20T03:49:53;13.10;99.90
10541;DHT22;5318;50.844;4.272;2022-12-20T03:52:30;13.10;99.90
10541;DHT22;5318;50.844;4.272;2022-12-20T03:55:07;13.00;99.90
10541;DHT22;5318;50.844;4.272;2022-12-20T03:57:44;13.10;99.90
10541;DHT22;5318;50.844;4.272;2022-12-20T04:00:20;13.10;99.90
10541;DHT22;5318;50.844;4.272;2022-12-20T04:02:57;13.10;99.90
10541;DHT22;5318;50.844;4.272;2022-12-20T04:05:34;13.00;99.90
10541;DHT22;5318;50.844;4.272;2022-12-20T04:08:11;13.00;99.90
10541;DHT22;5318;50.844;4.272;2022-12-20T04:10:47;12.90;99.90
10541;DHT22;5318;50.844;4.272;2022-12-20T04:13:24;12.90;99.90
10541;DHT22;5318;50.844;4.272;2022-12-20T04:16:00;13.00;99.90
10541;DHT22;5318;50.844;4.272;2022-12-20T04:18:37;12.90;99.90
10541;DHT22;5318;50.844;4.272;2022-12-20T04:21:14;12.90;99.90
10541;DHT22;5318;50.844;4.272;2022-12-20T04:23:50;12.90;99.90
10541;DHT22;5318;50.844;4.272;2022-12-20T04:26:28;13.10;99.90
10541;DHT22;5318;50.844;4.272;2022-12-20T04:29:04;13.10;99.90
10541;DHT22;5318;50.844;4.272;2022-12-20T04:31:41;13.10;99.90
10541;DHT22;5318;50.844;4.272;2022-12-20T04:34:18;13.00;99.90
10541;DHT22;5318;50.844;4.272;2022-12-20T04:36:54;13.10;99.90
10541;DHT22;5318;50.844;4.272;2022-12-20T04:39:31;13.00;99.90
10541;DHT22;5318;50.844;4.272;2022-12-20T04:42:07;13.00;99.90
10541;DHT22;5318;50.844;4.272;2022-12-20T04:44:44;12.90;99.90
10541;DHT22;5318;50.844;4.272;2022-12-20T04:47:20;12.90;99.90
10541;DHT22;5318;50.844;4.272;2022-12-20T04:49:57;12.80;99.90
10541;DHT22;5318;50.844;4.272;2022-12-20T04:52:34;12.80;99.90
10541;DHT22;5318;50.844;4.272;2022-12-20T04:55:11;12.80;99.90
10541;DHT22;5318;50.844;4.272;2022-12-20T04:57:48;12.80;99.90
10541;DHT22;5318;50.844;4.272;2022-12-20T05:00:24;12.80;99.90
10541;DHT22;5318;50.844;4.272;2022-12-20T05:03:01;12.80;99.90
10541;DHT22;5318;50.844;4.272;2022-12-20T05:05:37;12.80;99.90
10541;DHT22;5318;50.844;4.272;2022-12-20T05:08:14;12.80;99.90
10541;DHT22;5318;50.844;4.272;2022-12-20T05:10:50;12.80;99.90
10541;DHT22;5318;50.844;4.272;2022-12-20T05:13:27;12.70;99.90
10541;DHT22;5318;50.844;4.272;2022-12-20T05:16:04;12.70;99.90
10541;DHT22;5318;50.844;4.272;2022-12-20T05:18:41;12.80;99.90
10541;DHT22;5318;50.844;4.272;2022-12-20T05:21:17;12.80;99.90
10541;DHT22;5318;50.844;4.272;2022-12-20T05:23:54;12.80;99.90
10541;DHT22;5318;50.844;4.272;2022-12-20T05:26:32;12.80;99.90
10541;DHT22;5318;50.844;4.272;2022-12-20T05:29:07;12.80;99.90
10541;DHT22;5318;50.844;4.272;2022-12-20T05:31:44;12.70;99.90
10541;DHT22;5318;50.844;4.272;2022-12-20T05:34:20;12.70;99.90
10541;DHT22;5318;50.844;4.272;2022-12-20T05:36:57;12.80;99.90
10541;DHT22;5318;50.844;4.272;2022-12-20T05:39:34;12.60;99.90
10541;DHT22;5318;50.844;4.272;2022-12-20T05:42:10;12.60;99.90
10541;DHT22;5318;50.844;4.272;2022-12-20T05:44:47;12.60;99.90
10541;DHT22;5318;50.844;4.272;2022-12-20T05:47:24;12.60;99.90
10541;DHT22;5318;50.844;4.272;2022-12-20T05:50:01;12.60;99.90
10541;DHT22;5318;50.844;4.272;2022-12-20T05:52:37;12.60;99.90
10541;DHT22;5318;50.844;4.272;2022-12-20T05:55:14;12.60;99.90
10541;DHT22;5318;50.844;4.272;2022-12-20T05:57:50;12.60;99.90
10541;DHT22;5318;50.844;4.272;2022-12-20T06:00:27;12.70;99.90
10541;DHT22;5318;50.844;4.272;2022-12-20T06:03:03;12.70;99.90
10541;DHT22;5318;50.844;4.272;2022-12-20T06:05:40;12.80;99.90
10541;DHT22;5318;50.844;4.272;2022-12-20T06:08:17;12.90;99.90
10541;DHT22;5318;50.844;4.272;2022-12-20T06:10:54;12.80;99.90
10541;DHT22;5318;50.844;4.272;2022-12-20T06:13:31;12.90;99.90
10541;DHT22;5318;50.844;4.272;2022-12-20T06:16:07;12.90;99.90
10541;DHT22;5318;50.844;4.272;2022-12-20T06:18:44;12.90;99.90
10541;DHT22;5318;50.844;4.272;2022-12-20T06:21:20;12.90;99.90
10541;DHT22;5318;50.844;4.272;2022-12-20T06:23:57;13.10;99.90
10541;DHT22;5318;50.844;4.272;2022-12-20T06:26:33;13.10;99.90
10541;DHT22;5318;50.844;4.272;2022-12-20T06:29:10;13.20;99.90
10541;DHT22;5318;50.844;4.272;2022-12-20T06:31:47;13.10;99.90
10541;DHT22;5318;50.844;4.272;2022-12-20T06:34:24;13.20;99.90
10541;DHT22;5318;50.844;4.272;2022-12-20T06:37:00;13.20;99.90
10541;DHT22;5318;50.844;4.272;2022-12-20T06:39:37;13.20;99.90
10541;DHT22;5318;50.844;4.272;2022-12-20T06:42:14;13.30;99.90
10541;DHT22;5318;50.844;4.272;2022-12-20T06:44:50;13.30;99.90
10541;DHT22;5318;50.844;4.272;2022-12-20T06:47:27;13.30;99.90
10541;DHT22;5318;50.844;4.272;2022-12-20T06:50:03;13.40;99.90
10541;DHT22;5318;50.844;4.272;2022-12-20T06:52:40;13.40;99.90
10541;DHT22;5318;50.844;4.272;2022-12-20T06:55:17;13.40;99.90
10541;DHT22;5318;50.844;4.272;2022-12-20T06:57:53;13.40;99.90
10541;DHT22;5318;50.844;4.272;2022-12-20T07:00:30;13.40;99.90
10541;DHT22;5318;50.844;4.272;2022-12-20T07:03:06;13.50;99.90
10541;DHT22;5318;50.844;4.272;2022-12-20T07:05:43;13.40;99.90
10541;DHT22;5318;50.844;4.272;2022-12-20T07:08:20;13.40;99.90
10541;DHT22;5318;50.844;4.272;2022-12-20T07:11:02;13.10;99.90
10541;DHT22;5318;50.844;4.272;2022-12-20T07:13:34;13.10;99.90
10541;DHT22;5318;50.844;4.272;2022-12-20T07:16:10;13.10;99.90
10541;DHT22;5318;50.844;4.272;2022-12-20T07:18:50;12.90;99.90
10541;DHT22;5318;50.844;4.272;2022-12-20T07:21:26;12.80;99.90
10541;DHT22;5318;50.844;4.272;2022-12-20T07:24:03;12.50;99.90
10541;DHT22;5318;50.844;4.272;2022-12-20T07:26:42;12.60;99.90
10541;DHT22;5318;50.844;4.272;2022-12-20T07:29:17;12.60;99.90
10541;DHT22;5318;50.844;4.272;2022-12-20T07:31:54;12.50;99.90
10541;DHT22;5318;50.844;4.272;2022-12-20T07:34:30;12.40;99.90
10541;DHT22;5318;50.844;4.272;2022-12-20T07:37:07;12.30;99.90
10541;DHT22;5318;50.844;4.272;2022-12-20T07:39:44;12.30;99.90
10541;DHT22;5318;50.844;4.272;2022-12-20T07:42:20;12.30;99.90
10541;DHT22;5318;50.844;4.272;2022-12-20T07:44:57;12.30;99.90
10541;DHT22;5318;50.844;4.272;2022-12-20T07:47:33;12.20;99.90
10541;DHT22;5318;50.844;4.272;2022-12-20T07:50:10;12.10;99.90
10541;DHT22;5318;50.844;4.272;2022-12-20T07:52:46;12.10;99.90
10541;DHT22;5318;50.844;4.272;2022-12-20T07:55:23;12.00;99.90
10541;DHT22;5318;50.844;4.272;2022-12-20T07:58:01;11.90;99.90
10541;DHT22;5318;50.844;4.272;2022-12-20T08:00:37;12.10;99.90
10541;DHT22;5318;50.844;4.272;2022-12-20T08:03:18;12.10;99.90
10541;DHT22;5318;50.844;4.272;2022-12-20T08:05:54;12.10;99.90
10541;DHT22;5318;50.844;4.272;2022-12-20T08:08:32;12.00;99.90
10541;DHT22;5318;50.844;4.272;2022-12-20T08:11:08;12.00;99.90
10541;DHT22;5318;50.844;4.272;2022-12-20T08:13:45;12.00;99.90
10541;DHT22;5318;50.844;4.272;2022-12-20T08:16:22;11.90;99.90
10541;DHT22;5318;50.844;4.272;2022-12-20T08:18:58;11.80;99.90
10541;DHT22;5318;50.844;4.272;2022-12-20T08:21:35;11.80;99.90
10541;DHT22;5318;50.844;4.272;2022-12-20T08:24:11;11.90;99.90
10541;DHT22;5318;50.844;4.272;2022-12-20T08:26:48;11.90;99.90
10541;DHT22;5318;50.844;4.272;2022-12-20T08:29:25;11.90;99.90
10541;DHT22;5318;50.844;4.272;2022-12-20T08:32:01;11.70;99.90
10541;DHT22;5318;50.844;4.272;2022-12-20T08:34:38;11.90;99.90
10541;DHT22;5318;50.844;4.272;2022-12-20T08:37:15;11.90;99.90
10541;DHT22;5318;50.844;4.272;2022-12-20T08:39:52;11.90;99.90
10541;DHT22;5318;50.844;4.272;2022-12-20T08:42:28;12.00;99.90
10541;DHT22;5318;50.844;4.272;2022-12-20T08:45:05;12.00;99.90
10541;DHT22;5318;50.844;4.272;2022-12-20T08:47:41;12.00;99.90
10541;DHT22;5318;50.844;4.272;2022-12-20T08:50:18;12.20;99.90
10541;DHT22;5318;50.844;4.272;2022-12-20T08:52:55;12.30;99.90
10541;DHT22;5318;50.844;4.272;2022-12-20T08:55:32;12.20;99.90
10541;DHT22;5318;50.844;4.272;2022-12-20T08:58:08;12.20;99.90
10541;DHT22;5318;50.844;4.272;2022-12-20T09:00:45;12.20;99.90
10541;DHT22;5318;50.844;4.272;2022-12-20T09:03:22;12.10;99.90
10541;DHT22;5318;50.844;4.272;2022-12-20T09:05:58;12.10;99.90
10541;DHT22;5318;50.844;4.272;2022-12-20T09:08:35;12.10;99.90
10541;DHT22;5318;50.844;4.272;2022-12-20T09:13:49;12.20;99.90
10541;DHT22;5318;50.844;4.272;2022-12-20T09:16:26;12.30;99.90
10541;DHT22;5318;50.844;4.272;2022-12-20T09:19:02;12.30;99.90
10541;DHT22;5318;50.844;4.272;2022-12-20T09:21:38;12.30;99.90
10541;DHT22;5318;50.844;4.272;2022-12-20T09:24:15;12.30;99.90
10541;DHT22;5318;50.844;4.272;2022-12-20T09:26:52;12.20;99.90
10541;DHT22;5318;50.844;4.272;2022-12-20T09:29:28;12.30;99.90
10541;DHT22;5318;50.844;4.272;2022-12-20T09:32:05;12.40;99.90
10541;DHT22;5318;50.844;4.272;2022-12-20T09:34:41;12.50;99.90
10541;DHT22;5318;50.844;4.272;2022-12-20T09:37:18;12.50;99.90
10541;DHT22;5318;50.844;4.272;2022-12-20T09:39:55;12.60;99.90
10541;DHT22;5318;50.844;4.272;2022-12-20T09:42:31;12.70;99.90
10541;DHT22;5318;50.844;4.272;2022-12-20T09:45:08;12.70;99.90
10541;DHT22;5318;50.844;4.272;2022-12-20T09:47:45;12.70;99.90
10541;DHT22;5318;50.844;4.272;2022-12-20T09:50:36;12.70;99.90
10541;DHT22;5318;50.844;4.272;2022-12-20T09:53:02;12.50;99.90
10541;DHT22;5318;50.844;4.272;2022-12-20T09:55:46;12.40;99.90
10541;DHT22;5318;50.844;4.272;2022-12-20T10:01:28;12.20;99.90
10541;DHT22;5318;50.844;4.272;2022-12-20T10:04:26;12.20;99.90
10541;DHT22;5318;50.844;4.272;2022-12-20T10:07:09;12.20;99.90
10541;DHT22;5318;50.844;4.272;2022-12-20T10:09:51;12.00;99.90
10541;DHT22;5318;50.844;4.272;2022-12-20T10:12:28;12.10;99.90
10541;DHT22;5318;50.844;4.272;2022-12-20T10:17:51;12.10;99.90
10541;DHT22;5318;50.844;4.272;2022-12-20T10:20:31;12.30;99.90
10541;DHT22;5318;50.844;4.272;2022-12-20T10:23:14;12.30;99.90
10541;DHT22;5318;50.844;4.272;2022-12-20T10:25:52;12.30;99.90
10541;DHT22;5318;50.844;4.272;2022-12-20T10:28:32;12.20;99.90
10541;DHT22;5318;50.844;4.272;2022-12-20T10:31:13;12.10;99.90
10541;DHT22;5318;50.844;4.272;2022-12-20T10:33:46;12.10;99.90
10541;DHT22;5318;50.844;4.272;2022-12-20T10:36:31;12.20;99.90
10541;DHT22;5318;50.844;4.272;2022-12-20T10:39:08;12.10;99.90
10541;DHT22;5318;50.844;4.272;2022-12-20T10:44:27;12.10;99.90
10541;DHT22;5318;50.844;4.272;2022-12-20T10:47:00;12.10;99.90
10541;DHT22;5318;50.844;4.272;2022-12-20T10:49:37;12.10;99.90
10541;DHT22;5318;50.844;4.272;2022-12-20T10:52:13;12.10;99.90
10541;DHT22;5318;50.844;4.272;2022-12-20T10:54:49;12.10;99.90
10541;DHT22;5318;50.844;4.272;2022-12-20T10:57:27;12.10;99.90
10541;DHT22;5318;50.844;4.272;2022-12-20T11:00:04;12.10;99.90
10541;DHT22;5318;50.844;4.272;2022-12-20T11:02:40;12.10;99.90
10541;DHT22;5318;50.844;4.272;2022-12-20T11:05:23;12.10;99.90
10541;DHT22;5318;50.844;4.272;2022-12-20T11:08:12;12.30;99.90
10541;DHT22;5318;50.844;4.272;2022-12-20T11:10:45;12.30;99.90
10541;DHT22;5318;50.844;4.272;2022-12-20T11:13:23;12.30;99.90
10541;DHT22;5318;50.844;4.272;2022-12-20T11:15:59;12.20;99.90
10541;DHT22;5318;50.844;4.272;2022-12-20T11:18:46;12.30;99.90
10541;DHT22;5318;50.844;4.272;2022-12-20T11:21:32;12.20;99.90
10541;DHT22;5318;50.844;4.272;2022-12-20T11:24:25;12.20;99.90
10541;DHT22;5318;50.844;4.272;2022-12-20T11:27:15;12.20;99.90
10541;DHT22;5318;50.844;4.272;2022-12-20T11:29:56;12.30;99.90
10541;DHT22;5318;50.844;4.272;2022-12-20T11:36:05;12.20;99.90
10541;DHT22;5318;50.844;4.272;2022-12-20T11:41:17;12.00;99.90
10541;DHT22;5318;50.844;4.272;2022-12-20T11:50:16;11.80;99.90
10541;DHT22;5318;50.844;4.272;2022-12-20T11:52:58;11.70;99.90
10541;DHT22;5318;50.844;4.272;2022-12-20T11:55:36;11.80;99.90
10541;DHT22;5318;50.844;4.272;2022-12-20T11:58:19;11.80;99.90
10541;DHT22;5318;50.844;4.272;2022-12-20T12:00:57;11.70;99.90
10541;DHT22;5318;50.844;4.272;2022-12-20T12:03:34;11.70;99.90
10541;DHT22;5318;50.844;4.272;2022-12-20T12:06:26;11.80;99.90
10541;DHT22;5318;50.844;4.272;2022-12-20T12:11:52;11.80;99.90
10541;DHT22;5318;50.844;4.272;2022-12-20T12:14:34;11.80;99.90
10541;DHT22;5318;50.844;4.272;2022-12-20T12:17:12;11.80;99.90
10541;DHT22;5318;50.844;4.272;2022-12-20T12:19:45;11.90;99.90
10541;DHT22;5318;50.844;4.272;2022-12-20T12:22:24;11.90;99.90
10541;DHT22;5318;50.844;4.272;2022-12-20T12:24:59;11.80;99.90
10541;DHT22;5318;50.844;4.272;2022-12-20T12:27:35;11.90;99.90
10541;DHT22;5318;50.844;4.272;2022-12-20T12:30:13;11.80;99.90
10541;DHT22;5318;50.844;4.272;2022-12-20T12:32:57;11.70;99.90
10541;DHT22;5318;50.844;4.272;2022-12-20T12:38:37;11.80;99.90
10541;DHT22;5318;50.844;4.272;2022-12-20T12:43:52;11.80;99.90
10541;DHT22;5318;50.844;4.272;2022-12-20T12:46:29;11.80;99.90
10541;DHT22;5318;50.844;4.272;2022-12-20T12:49:14;11.70;99.90
10541;DHT22;5318;50.844;4.272;2022-12-20T12:51:56;11.80;99.90
10541;DHT22;5318;50.844;4.272;2022-12-20T12:54:38;11.90;99.90
10541;DHT22;5318;50.844;4.272;2022-12-20T12:57:15;11.90;99.90
10541;DHT22;5318;50.844;4.272;2022-12-20T12:59:50;11.90;99.90
10541;DHT22;5318;50.844;4.272;2022-12-20T13:02:32;11.90;99.90
10541;DHT22;5318;50.844;4.272;2022-12-20T13:07:43;11.90;99.90
10541;DHT22;5318;50.844;4.272;2022-12-20T13:13:00;11.90;99.90
10541;DHT22;5318;50.844;4.272;2022-12-20T13:18:20;12.00;99.90
10541;DHT22;5318;50.844;4.272;2022-12-20T13:23:47;11.90;99.90
10541;DHT22;5318;50.844;4.272;2022-12-20T13:26:48;12.00;99.90
10541;DHT22;5318;50.844;4.272;2022-12-20T13:29:22;12.10;99.90
10541;DHT22;5318;50.844;4.272;2022-12-20T13:31:58;12.10;99.90
10541;DHT22;5318;50.844;4.272;2022-12-20T13:34:41;11.80;99.90
10541;DHT22;5318;50.844;4.272;2022-12-20T13:40:31;11.70;99.90
10541;DHT22;5318;50.844;4.272;2022-12-20T13:43:52;11.80;99.90
10541;DHT22;5318;50.844;4.272;2022-12-20T13:45:44;11.80;99.90
10541;DHT22;5318;50.844;4.272;2022-12-20T13:48:31;11.70;99.90
10541;DHT22;5318;50.844;4.272;2022-12-20T13:51:05;11.90;99.90
10541;DHT22;5318;50.844;4.272;2022-12-20T13:53:49;11.80;99.90
10541;DHT22;5318;50.844;4.272;2022-12-20T13:59:12;11.80;99.90
10541;DHT22;5318;50.844;4.272;2022-12-20T14:01:46;11.80;99.90
10541;DHT22;5318;50.844;4.272;2022-12-20T14:04:22;11.90;99.90
10541;DHT22;5318;50.844;4.272;2022-12-20T14:06:59;11.90;99.90
10541;DHT22;5318;50.844;4.272;2022-12-20T14:09:37;11.90;99.90
10541;DHT22;5318;50.844;4.272;2022-12-20T14:12:14;11.90;99.90
10541;DHT22;5318;50.844;4.272;2022-12-20T14:14:50;11.90;99.90
10541;DHT22;5318;50.844;4.272;2022-12-20T14:17:27;11.90;99.90
10541;DHT22;5318;50.844;4.272;2022-12-20T14:22:51;11.90;99.90
10541;DHT22;5318;50.844;4.272;2022-12-20T14:25:37;11.90;99.90
10541;DHT22;5318;50.844;4.272;2022-12-20T14:28:04;11.80;99.90
10541;DHT22;5318;50.844;4.272;2022-12-20T14:30:41;11.80;99.90
10541;DHT22;5318;50.844;4.272;2022-12-20T14:33:36;11.90;99.90
10541;DHT22;5318;50.844;4.272;2022-12-20T14:38:52;12.10;99.90
10541;DHT22;5318;50.844;4.272;2022-12-20T14:44:12;11.90;99.90
10541;DHT22;5318;50.844;4.272;2022-12-20T14:47:02;11.80;99.90
10541;DHT22;5318;50.844;4.272;2022-12-20T14:49:37;11.80;99.90
10541;DHT22;5318;50.844;4.272;2022-12-20T14:52:15;11.70;99.90
10541;DHT22;5318;50.844;4.272;2022-12-20T14:57:38;11.80;99.90
10541;DHT22;5318;50.844;4.272;2022-12-20T15:03:10;11.90;99.90
10541;DHT22;5318;50.844;4.272;2022-12-20T15:05:42;11.90;99.90
10541;DHT22;5318;50.844;4.272;2022-12-20T15:08:24;11.90;99.90
10541;DHT22;5318;50.844;4.272;2022-12-20T15:13:46;12.10;99.90
10541;DHT22;5318;50.844;4.272;2022-12-20T15:16:23;12.00;99.90
10541;DHT22;5318;50.844;4.272;2022-12-20T15:18:59;12.00;99.90
10541;DHT22;5318;50.844;4.272;2022-12-20T15:21:38;12.00;99.90
10541;DHT22;5318;50.844;4.272;2022-12-20T15:24:15;12.10;99.90
10541;DHT22;5318;50.844;4.272;2022-12-20T15:26:51;12.00;99.90
10541;DHT22;5318;50.844;4.272;2022-12-20T15:29:27;12.00;99.90
10541;DHT22;5318;50.844;4.272;2022-12-20T15:32:05;12.10;99.90
10541;DHT22;5318;50.844;4.272;2022-12-20T15:34:40;12.20;99.90
10541;DHT22;5318;50.844;4.272;2022-12-20T15:37:17;12.10;99.90
10541;DHT22;5318;50.844;4.272;2022-12-20T15:39:53;12.10;99.90
10541;DHT22;5318;50.844;4.272;2022-12-20T15:42:30;12.00;99.90
10541;DHT22;5318;50.844;4.272;2022-12-20T15:45:11;12.10;99.90
10541;DHT22;5318;50.844;4.272;2022-12-20T15:47:43;12.20;99.90
10541;DHT22;5318;50.844;4.272;2022-12-20T15:50:20;12.20;99.90
10541;DHT22;5318;50.844;4.272;2022-12-20T15:52:57;12.20;99.90
10541;DHT22;5318;50.844;4.272;2022-12-20T15:55:34;12.30;99.90
10541;DHT22;5318;50.844;4.272;2022-12-20T15:58:10;12.20;99.90
10541;DHT22;5318;50.844;4.272;2022-12-20T16:00:47;12.30;99.90
10541;DHT22;5318;50.844;4.272;2022-12-20T16:03:24;12.40;99.90
10541;DHT22;5318;50.844;4.272;2022-12-20T16:06:00;12.30;99.90
10541;DHT22;5318;50.844;4.272;2022-12-20T16:08:37;12.50;99.90
10541;DHT22;5318;50.844;4.272;2022-12-20T16:11:19;12.50;99.90
10541;DHT22;5318;50.844;4.272;2022-12-20T16:13:53;12.50;99.90
10541;DHT22;5318;50.844;4.272;2022-12-20T16:16:30;12.40;99.90
10541;DHT22;5318;50.844;4.272;2022-12-20T16:19:06;12.30;99.90
10541;DHT22;5318;50.844;4.272;2022-12-20T16:21:51;12.30;99.90
10541;DHT22;5318;50.844;4.272;2022-12-20T16:24:24;12.30;99.90
10541;DHT22;5318;50.844;4.272;2022-12-20T16:27:01;12.30;99.90
10541;DHT22;5318;50.844;4.272;2022-12-20T16:29:37;12.20;99.90
10541;DHT22;5318;50.844;4.272;2022-12-20T16:32:14;12.20;99.90
10541;DHT22;5318;50.844;4.272;2022-12-20T16:34:50;12.10;99.90
10541;DHT22;5318;50.844;4.272;2022-12-20T16:37:27;12.10;99.90
10541;DHT22;5318;50.844;4.272;2022-12-20T16:40:03;12.20;99.90
10541;DHT22;5318;50.844;4.272;2022-12-20T16:42:41;12.10;99.90
10541;DHT22;5318;50.844;4.272;2022-12-20T16:45:19;12.20;99.90
10541;DHT22;5318;50.844;4.272;2022-12-20T16:47:54;12.20;99.90
10541;DHT22;5318;50.844;4.272;2022-12-20T16:50:31;12.10;99.90
10541;DHT22;5318;50.844;4.272;2022-12-20T16:53:10;12.10;99.90
10541;DHT22;5318;50.844;4.272;2022-12-20T16:55:44;12.20;99.90
10541;DHT22;5318;50.844;4.272;2022-12-20T16:58:21;12.20;99.90
10541;DHT22;5318;50.844;4.272;2022-12-20T17:00:58;12.20;99.90
10541;DHT22;5318;50.844;4.272;2022-12-20T17:03:34;12.20;99.90
10541;DHT22;5318;50.844;4.272;2022-12-20T17:06:11;12.20;99.90
10541;DHT22;5318;50.844;4.272;2022-12-20T17:08:47;12.00;99.90
10541;DHT22;5318;50.844;4.272;2022-12-20T17:11:25;11.90;99.90
10541;DHT22;5318;50.844;4.272;2022-12-20T17:14:01;12.10;99.90
10541;DHT22;5318;50.844;4.272;2022-12-20T17:16:37;12.00;99.90
10541;DHT22;5318;50.844;4.272;2022-12-20T17:19:14;12.20;99.90
10541;DHT22;5318;50.844;4.272;2022-12-20T17:21:52;12.20;99.90
10541;DHT22;5318;50.844;4.272;2022-12-20T17:24:28;12.00;99.90
10541;DHT22;5318;50.844;4.272;2022-12-20T17:27:05;12.00;99.90
10541;DHT22;5318;50.844;4.272;2022-12-20T17:29:42;11.90;99.90
10541;DHT22;5318;50.844;4.272;2022-12-20T17:32:19;12.00;99.90
10541;DHT22;5318;50.844;4.272;2022-12-20T17:34:55;12.10;99.90
10541;DHT22;5318;50.844;4.272;2022-12-20T17:37:32;12.10;99.90
10541;DHT22;5318;50.844;4.272;2022-12-20T17:40:15;12.10;99.90
10541;DHT22;5318;50.844;4.272;2022-12-20T17:42:51;11.90;99.90
10541;DHT22;5318;50.844;4.272;2022-12-20T17:45:28;11.90;99.90
10541;DHT22;5318;50.844;4.272;2022-12-20T17:48:04;12.00;99.90
10541;DHT22;5318;50.844;4.272;2022-12-20T17:50:40;12.00;99.90
10541;DHT22;5318;50.844;4.272;2022-12-20T17:53:17;12.10;99.90
10541;DHT22;5318;50.844;4.272;2022-12-20T17:55:53;12.20;99.90
10541;DHT22;5318;50.844;4.272;2022-12-20T17:58:30;12.10;99.90
10541;DHT22;5318;50.844;4.272;2022-12-20T18:01:12;12.20;99.90
10541;DHT22;5318;50.844;4.272;2022-12-20T18:03:43;12.30;99.90
10541;DHT22;5318;50.844;4.272;2022-12-20T18:06:20;12.50;99.90
10541;DHT22;5318;50.844;4.272;2022-12-20T18:08:57;12.50;99.90
10541;DHT22;5318;50.844;4.272;2022-12-20T18:11:33;12.60;99.90
10541;DHT22;5318;50.844;4.272;2022-12-20T18:14:10;12.60;99.90
10541;DHT22;5318;50.844;4.272;2022-12-20T18:16:47;12.60;99.90
10541;DHT22;5318;50.844;4.272;2022-12-20T18:19:23;12.60;99.90
10541;DHT22;5318;50.844;4.272;2022-12-20T18:22:00;12.60;99.90
10541;DHT22;5318;50.844;4.272;2022-12-20T18:24:40;12.40;99.90